Time;durP1;ratioP1;P1;durP2;ratioP2;P2;SDS_P1;SDS_P2;PMS_P1;PMS_P2;Temp;Humidity;BMP_temperature;BMP_pressure;BME280_temperature;BME280_humidity;BME280_pressure;Samples;Min_cycle;Max_cycle;Signal;HPM_P1;HPM_P2
2023/02/27 00:01:32;;;;;;;14.95;3.60;;;;;;;-0.89;100.00;102687.88;5073124;28;20055;-73
2023/02/27 00:03:59;;;;;;;13.88;3.80;;;;;;;-0.87;100.00;102686.34;5073282;28;20475;-73
2023/02/27 00:06:25;;;;;;;16.83;3.60;;;;;;;-0.89;100.00;102693.09;5073233;28;20430;-73
2023/02/27 00:08:50;;;;;;;13.10;3.42;;;;;;;-0.86;100.00;102701.13;5073103;28;20032;-73
2023/02/27 00:11:16;;;;;;;17.17;4.00;;;;;;;-0.90;100.00;102699.97;5073498;28;20067;-73
2023/02/27 00:13:41;;;;;;;16.08;3.67;;;;;;;-0.95;100.00;102695.19;5072955;28;20485;-74
2023/02/27 00:16:07;;;;;;;13.77;3.80;;;;;;;-1.06;100.00;102694.34;5072968;28;20042;-73
2023/02/27 00:18:32;;;;;;;14.95;3.40;;;;;;;-1.19;100.00;102686.31;5073087;28;20024;-73
2023/02/27 00:20:57;;;;;;;16.73;3.63;;;;;;;-1.22;100.00;102689.59;5072805;28;20033;-73
2023/02/27 00:23:23;;;;;;;15.95;3.80;;;;;;;-1.29;100.00;102680.38;5071837;28;20036;-72
2023/02/27 00:25:48;;;;;;;14.32;3.58;;;;;;;-1.30;100.00;102680.25;5072855;28;20024;-74
2023/02/27 00:28:14;;;;;;;15.23;3.60;;;;;;;-1.24;100.00;102686.88;5072595;28;20048;-73
2023/02/27 00:30:40;;;;;;;17.08;3.90;;;;;;;-1.32;100.00;102684.44;5073019;28;20063;-73
2023/02/27 00:33:06;;;;;;;15.43;3.90;;;;;;;-1.33;100.00;102680.00;5072708;28;20037;-74
2023/02/27 00:35:31;;;;;;;16.67;3.80;;;;;;;-1.34;100.00;102680.78;5072727;28;20024;-74
2023/02/27 00:37:57;;;;;;;15.27;3.70;;;;;;;-1.35;100.00;102681.59;5073088;28;20041;-72
2023/02/27 00:40:24;;;;;;;18.10;3.90;;;;;;;-1.37;100.00;102678.84;5072652;28;20024;-74
2023/02/27 00:42:50;;;;;;;15.43;3.53;;;;;;;-1.33;100.00;102683.50;5072664;28;20371;-73
2023/02/27 00:45:16;;;;;;;17.02;3.67;;;;;;;-1.43;100.00;102671.47;5072735;28;20067;-74
2023/02/27 00:47:41;;;;;;;14.55;3.63;;;;;;;-1.49;100.00;102673.53;5072606;28;20064;-77
2023/02/27 00:50:07;;;;;;;15.50;3.85;;;;;;;-1.42;100.00;102673.28;5072481;28;20036;-72
2023/02/27 00:52:33;;;;;;;15.55;3.50;;;;;;;-1.51;100.00;102672.53;5072463;28;20509;-73
2023/02/27 00:54:59;;;;;;;16.05;3.90;;;;;;;-1.42;100.00;102673.28;5072565;28;20085;-73
2023/02/27 00:57:25;;;;;;;16.40;3.75;;;;;;;-1.45;100.00;102677.31;5072593;28;20025;-73
2023/02/27 00:59:50;;;;;;;13.50;3.60;;;;;;;-1.46;100.00;102671.19;5072631;28;20560;-73
2023/02/27 01:02:16;;;;;;;17.08;3.50;;;;;;;-1.42;100.00;102668.09;5072403;28;20040;-73
2023/02/27 01:04:42;;;;;;;15.02;3.50;;;;;;;-1.41;100.00;102669.00;5072341;28;20048;-73
2023/02/27 01:07:07;;;;;;;16.48;3.83;;;;;;;-1.51;100.00;102667.34;5072581;28;20383;-73
2023/02/27 01:09:33;;;;;;;13.48;3.50;;;;;;;-1.60;100.00;102666.59;5072424;28;20056;-73
2023/02/27 01:11:58;;;;;;;14.30;3.60;;;;;;;-1.63;100.00;102667.25;5072567;28;20036;-73
2023/02/27 01:14:24;;;;;;;15.43;3.67;;;;;;;-1.64;100.00;102662.81;5072418;28;20029;-73
2023/02/27 01:16:49;;;;;;;14.75;3.80;;;;;;;-1.63;100.00;102667.25;5072255;28;20037;-73
2023/02/27 01:19:14;;;;;;;16.70;3.70;;;;;;;-1.68;100.00;102667.63;5072388;28;20037;-74
2023/02/27 01:21:40;;;;;;;12.30;3.60;;;;;;;-1.71;100.00;102672.56;5072268;28;20101;-73
2023/02/27 01:24:06;;;;;;;14.98;3.80;;;;;;;-1.69;100.00;102671.91;5071314;28;20535;-73
2023/02/27 01:26:32;;;;;;;18.08;4.15;;;;;;;-1.71;100.00;102668.28;5072175;28;20494;-73
2023/02/27 01:28:58;;;;;;;15.63;3.92;;;;;;;-1.77;100.00;102672.97;5072062;28;20044;-74
2023/02/27 01:31:23;;;;;;;14.00;3.90;;;;;;;-1.76;100.00;102669.59;5072263;28;20041;-73
2023/02/27 01:33:49;;;;;;;13.30;3.70;;;;;;;-1.88;100.00;102669.44;5072381;28;20028;-73
2023/02/27 01:36:14;;;;;;;15.40;3.80;;;;;;;-1.86;100.00;102672.19;5072301;28;20037;-73
2023/02/27 01:38:40;;;;;;;14.80;3.78;;;;;;;-1.84;100.00;102663.75;5072264;28;20099;-73
2023/02/27 01:41:06;;;;;;;16.98;3.70;;;;;;;-1.90;100.00;102670.13;5073408;28;20036;-73
2023/02/27 01:43:33;;;;;;;15.52;3.85;;;;;;;-1.90;100.00;102668.44;5075886;28;20033;-73
2023/02/27 01:45:59;;;;;;;15.48;4.00;;;;;;;-1.91;100.00;102666.59;5075743;28;20013;-77
2023/02/27 01:48:34;;;;;;;15.48;3.80;;;;;;;-1.95;100.00;102668.03;5075887;28;20067;-76
2023/02/27 01:51:18;;;;;;;14.55;3.85;;;;;;;-2.03;100.00;102668.19;5072896;28;20124;-74
2023/02/27 01:53:47;;;;;;;17.25;3.90;;;;;;;-2.08;100.00;102667.78;5075710;28;20131;-75
2023/02/27 01:56:19;;;;;;;16.60;3.80;;;;;;;-2.06;100.00;102668.81;5075642;28;20028;-75
2023/02/27 01:58:48;;;;;;;16.60;3.70;;;;;;;-2.08;100.00;102666.88;5075690;28;20107;-75
2023/02/27 02:01:14;;;;;;;16.90;4.00;;;;;;;-2.11;100.00;102659.75;5075687;28;20027;-75
2023/02/27 02:03:54;;;;;;;14.35;3.80;;;;;;;-2.15;100.00;102662.88;5075409;28;20414;-74
2023/02/27 02:06:19;;;;;;;17.75;4.10;;;;;;;-2.16;100.00;102659.34;5075394;28;20021;-76
2023/02/27 02:08:47;;;;;;;16.90;3.78;;;;;;;-2.19;100.00;102661.69;5075559;28;20028;-74
2023/02/27 02:11:16;;;;;;;16.25;3.95;;;;;;;-2.20;100.00;102659.91;5075337;28;20538;-73
2023/02/27 02:13:41;;;;;;;16.08;3.72;;;;;;;-2.28;100.00;102655.72;5075267;28;20060;-76
2023/02/27 02:16:19;;;;;;;14.02;3.80;;;;;;;-2.30;100.00;102662.44;5075479;28;20036;-73
2023/02/27 02:19:06;;;;;;;16.30;3.92;;;;;;;-2.35;100.00;102658.56;5075318;28;20090;-77
2023/02/27 02:21:32;;;;;;;18.33;4.07;;;;;;;-2.40;100.00;102655.59;5072545;28;20153;-74
2023/02/27 02:24:19;;;;;;;15.00;3.95;;;;;;;-2.36;100.00;102656.75;5075120;28;20504;-77
2023/02/27 02:27:17;;;;;;;15.32;3.80;;;;;;;-2.37;100.00;102660.13;5074296;28;20016;-76
2023/02/27 02:30:01;;;;;;;14.68;3.90;;;;;;;-2.39;100.00;102669.44;5033345;28;20434;-74
2023/02/27 02:33:00;;;;;;;15.95;3.97;;;;;;;-2.42;100.00;102658.81;5071750;28;20116;-75
2023/02/27 02:35:59;;;;;;;14.50;4.00;;;;;;;-2.40;100.00;102662.44;5071513;28;20047;-74
2023/02/27 02:39:06;;;;;;;19.05;4.30;;;;;;;-2.43;100.00;102668.28;5071014;28;20379;-73
2023/02/27 02:41:57;;;;;;;16.33;4.20;;;;;;;-2.44;100.00;102660.38;5072166;28;20031;-73
2023/02/27 02:44:29;;;;;;;16.20;4.05;;;;;;;-2.44;100.00;102666.47;5069640;28;20039;-73
2023/02/27 02:47:30;;;;;;;17.15;4.07;;;;;;;-2.54;100.00;102666.44;5070931;28;20036;-73
2023/02/27 02:50:09;;;;;;;14.05;3.80;;;;;;;-2.61;100.00;102670.16;5071218;28;20024;-73
2023/02/27 02:52:34;;;;;;;16.98;4.20;;;;;;;-2.66;100.00;102666.28;5071141;28;20056;-73
2023/02/27 02:55:02;;;;;;;16.45;4.13;;;;;;;-2.64;100.00;102662.13;5074625;28;20611;-74
2023/02/27 02:57:54;;;;;;;16.80;4.20;;;;;;;-2.71;100.00;102667.56;5074507;28;20024;-73
2023/02/27 03:00:32;;;;;;;15.70;4.30;;;;;;;-2.71;100.00;102670.16;5074371;28;20032;-73
2023/02/27 03:03:07;;;;;;;17.02;4.15;;;;;;;-2.74;100.00;102680.25;5070846;28;20475;-73
2023/02/27 03:05:41;;;;;;;16.45;4.22;;;;;;;-2.83;100.00;102673.47;5071695;28;20020;-73
2023/02/27 03:08:18;;;;;;;17.42;4.47;;;;;;;-2.89;100.00;102675.53;5074453;28;20024;-73
2023/02/27 03:10:53;;;;;;;14.82;4.38;;;;;;;-2.86;100.00;102668.03;5074234;28;20048;-73
2023/02/27 03:13:23;;;;;;;15.25;4.40;;;;;;;-2.95;100.00;102682.75;5074376;28;20063;-73
2023/02/27 03:16:14;;;;;;;15.90;4.28;;;;;;;-2.98;100.00;102674.72;5074174;28;20483;-73
2023/02/27 03:18:49;;;;;;;16.48;4.25;;;;;;;-3.01;100.00;102677.94;5068192;28;20024;-73
2023/02/27 03:21:23;;;;;;;16.52;4.30;;;;;;;-3.01;100.00;102688.31;5074246;28;20025;-75
2023/02/27 03:23:52;;;;;;;15.82;4.45;;;;;;;-3.01;100.00;102684.81;5074273;28;20032;-73
2023/02/27 03:26:22;;;;;;;16.35;4.65;;;;;;;-3.09;100.00;102693.56;5074021;28;20025;-73
2023/02/27 03:28:58;;;;;;;16.95;4.60;;;;;;;-3.19;100.00;102689.25;5073821;28;20041;-73
2023/02/27 03:31:36;;;;;;;16.67;4.57;;;;;;;-3.24;100.00;102688.84;5069860;28;20032;-73
2023/02/27 03:34:12;;;;;;;16.23;4.70;;;;;;;-3.24;100.00;102698.28;5070921;28;20032;-73
2023/02/27 03:36:51;;;;;;;16.75;4.68;;;;;;;-3.26;100.00;102694.63;5073999;28;20020;-73
2023/02/27 03:39:39;;;;;;;16.98;4.43;;;;;;;-3.36;100.00;102690.34;5073796;28;20059;-73
2023/02/27 03:42:30;;;;;;;17.35;4.75;;;;;;;-3.35;100.00;102702.47;5071272;28;20028;-73
2023/02/27 03:45:04;;;;;;;19.02;4.90;;;;;;;-3.40;100.00;102701.16;5034118;28;20040;-73
2023/02/27 03:47:31;;;;;;;19.58;4.88;;;;;;;-3.45;100.00;102699.81;5070168;28;20030;-73
2023/02/27 03:49:57;;;;;;;18.17;4.82;;;;;;;-3.52;100.00;102698.38;5073473;28;20066;-73
2023/02/27 03:52:24;;;;;;;17.08;4.78;;;;;;;-3.55;100.00;102701.59;5073622;28;20060;-73
2023/02/27 03:55:02;;;;;;;18.25;4.85;;;;;;;-3.55;100.00;102703.28;5071989;28;20495;-73
2023/02/27 03:57:29;;;;;;;18.98;5.07;;;;;;;-3.57;100.00;102703.16;5069811;28;20026;-73
2023/02/27 03:59:56;;;;;;;18.80;5.30;;;;;;;-3.58;100.00;102700.38;5069315;28;20460;-73
2023/02/27 04:02:22;;;;;;;18.60;5.20;;;;;;;-3.51;100.00;102701.09;5073244;28;20036;-73
2023/02/27 04:04:47;;;;;;;17.13;5.00;;;;;;;-3.46;100.00;102704.09;5072864;28;20386;-73
2023/02/27 04:07:24;;;;;;;17.65;4.80;;;;;;;-3.42;100.00;102711.38;5073132;28;20127;-73
2023/02/27 04:10:10;;;;;;;18.00;4.80;;;;;;;-3.45;100.00;102713.69;5073418;28;20081;-73
2023/02/27 04:13:10;;;;;;;18.50;5.10;;;;;;;-3.43;100.00;102711.25;5070530;28;20461;-73
2023/02/27 04:16:03;;;;;;;19.08;5.10;;;;;;;-3.46;100.00;102710.97;5070457;28;20040;-73
2023/02/27 04:18:47;;;;;;;16.92;5.05;;;;;;;-3.46;100.00;102705.78;5069559;28;20027;-74
2023/02/27 04:21:35;;;;;;;18.13;4.97;;;;;;;-3.57;100.00;102717.72;5072900;28;20031;-73
2023/02/27 04:24:36;;;;;;;17.75;5.00;;;;;;;-3.68;100.00;102719.34;5069711;28;20498;-74
2023/02/27 04:27:21;;;;;;;17.83;4.93;;;;;;;-3.83;100.00;102708.47;5069857;28;20464;-73
2023/02/27 04:29:51;;;;;;;17.60;5.00;;;;;;;-3.85;100.00;102704.84;5073015;28;20428;-73
2023/02/27 04:32:40;;;;;;;16.58;5.13;;;;;;;-3.88;100.00;102722.66;5073024;28;20111;-73
2023/02/27 04:35:12;;;;;;;19.08;5.32;;;;;;;-3.83;100.00;102723.09;5070241;28;20512;-73
2023/02/27 04:38:03;;;;;;;18.73;5.47;;;;;;;-3.85;100.00;102726.44;5072781;28;20103;-73
2023/02/27 04:40:41;;;;;;;19.40;5.28;;;;;;;-3.77;100.00;102723.66;5069113;28;20065;-73
2023/02/27 04:43:11;;;;;;;18.77;5.10;;;;;;;-3.81;100.00;102731.91;5070277;28;20051;-73
2023/02/27 04:45:40;;;;;;;17.70;4.88;;;;;;;-3.82;100.00;102733.56;5072634;28;20037;-73
2023/02/27 04:48:12;;;;;;;17.50;5.30;;;;;;;-3.74;100.00;102734.25;5072768;28;20029;-74
2023/02/27 04:50:44;;;;;;;19.00;5.15;;;;;;;-3.73;100.00;102725.75;5072569;28;20032;-73
2023/02/27 04:53:21;;;;;;;18.30;5.22;;;;;;;-3.72;100.00;102728.47;5072678;28;20021;-73
2023/02/27 04:55:52;;;;;;;16.38;5.03;;;;;;;-3.72;100.00;102727.56;5072533;28;20467;-73
2023/02/27 04:58:22;;;;;;;19.00;5.20;;;;;;;-3.65;100.00;102729.97;5072687;28;20489;-74
2023/02/27 05:00:55;;;;;;;18.00;4.85;;;;;;;-3.74;100.00;102726.50;5072354;28;20028;-73
2023/02/27 05:03:29;;;;;;;18.65;5.03;;;;;;;-3.80;100.00;102731.13;5072350;28;20032;-73
2023/02/27 05:05:58;;;;;;;18.13;4.93;;;;;;;-3.81;100.00;102732.81;5072309;28;20028;-73
2023/02/27 05:08:48;;;;;;;16.85;4.78;;;;;;;-3.83;100.00;102730.84;5072834;28;20032;-74
2023/02/27 05:11:40;;;;;;;18.02;5.20;;;;;;;-3.86;100.00;102734.03;5066990;28;20387;-77
2023/02/27 05:14:15;;;;;;;18.52;5.20;;;;;;;-3.89;100.00;102732.09;5065444;28;20078;-74
2023/02/27 05:16:48;;;;;;;19.40;4.72;;;;;;;-3.85;100.00;102733.28;5076410;28;20379;-74
2023/02/27 05:19:13;;;;;;;17.85;4.90;;;;;;;-3.89;100.00;102733.75;5076413;28;20111;-74
2023/02/27 05:21:59;;;;;;;15.65;4.80;;;;;;;-3.91;100.00;102741.38;5076378;28;20063;-75
2023/02/27 05:24:36;;;;;;;18.20;4.75;;;;;;;-3.98;100.00;102751.00;5076248;28;20450;-74
2023/02/27 05:27:30;;;;;;;19.73;4.95;;;;;;;-4.00;100.00;102744.75;5072920;28;20054;-75
2023/02/27 05:30:21;;;;;;;17.52;4.97;;;;;;;-3.99;100.00;102744.00;5072240;28;20953;-77
2023/02/27 05:33:00;;;;;;;20.05;4.93;;;;;;;-4.06;100.00;102745.13;5066555;28;20102;-74
2023/02/27 05:35:45;;;;;;;18.15;5.07;;;;;;;-4.07;100.00;102748.47;5072170;28;20032;-75
2023/02/27 05:38:18;;;;;;;17.77;4.95;;;;;;;-4.11;100.00;102741.19;5074308;28;20070;-73
2023/02/27 05:40:49;;;;;;;19.25;5.25;;;;;;;-4.17;100.00;102754.44;5075839;28;20051;-73
2023/02/27 05:43:23;;;;;;;18.95;5.38;;;;;;;-4.18;100.00;102754.28;5076044;28;20032;-74
2023/02/27 05:45:54;;;;;;;18.15;5.30;;;;;;;-4.18;100.00;102757.78;5076094;28;20540;-74
2023/02/27 05:48:25;;;;;;;17.83;5.30;;;;;;;-4.18;100.00;102762.03;5075692;28;20090;-73
2023/02/27 05:50:52;;;;;;;18.55;5.35;;;;;;;-4.15;100.00;102765.84;5075677;28;20709;-74
2023/02/27 05:53:20;;;;;;;19.17;5.38;;;;;;;-4.18;100.00;102764.63;5075842;28;20100;-76
2023/02/27 05:55:49;;;;;;;20.50;5.82;;;;;;;-4.15;100.00;102759.75;5075682;28;20027;-74
2023/02/27 05:58:25;;;;;;;18.40;5.65;;;;;;;-4.14;100.00;102765.06;5075539;28;20032;-73
2023/02/27 06:00:57;;;;;;;20.23;5.63;;;;;;;-4.12;100.00;102765.19;5074229;28;20039;-74
2023/02/27 06:03:24;;;;;;;19.98;5.80;;;;;;;-4.14;100.00;102771.91;5075677;28;20103;-73
2023/02/27 06:05:52;;;;;;;18.67;5.50;;;;;;;-4.15;100.00;102767.50;5074319;28;20040;-74
2023/02/27 06:08:18;;;;;;;20.05;5.80;;;;;;;-4.18;100.00;102775.84;5074180;28;20067;-74
2023/02/27 06:10:43;;;;;;;18.55;5.82;;;;;;;-4.20;100.00;102778.28;5075636;28;20050;-73
2023/02/27 06:13:09;;;;;;;19.35;5.63;;;;;;;-4.21;100.00;102776.50;5075334;28;20029;-73
2023/02/27 06:15:34;;;;;;;20.90;5.95;;;;;;;-4.24;100.00;102771.06;5075381;28;20038;-73
2023/02/27 06:18:00;;;;;;;19.95;6.00;;;;;;;-4.24;100.00;102775.28;5075433;28;20181;-73
2023/02/27 06:20:25;;;;;;;20.08;5.78;;;;;;;-4.22;100.00;102778.94;5066941;28;20056;-73
2023/02/27 06:22:51;;;;;;;18.70;5.90;;;;;;;-4.26;100.00;102779.41;5075129;28;20506;-73
2023/02/27 06:25:17;;;;;;;20.50;6.15;;;;;;;-4.24;100.00;102776.22;5075295;28;20490;-73
2023/02/27 06:27:42;;;;;;;20.45;6.22;;;;;;;-4.25;100.00;102784.72;5074864;28;20173;-73
2023/02/27 06:30:08;;;;;;;22.65;7.85;;;;;;;-4.25;100.00;102786.38;5074960;28;20502;-73
2023/02/27 06:32:33;;;;;;;21.88;8.25;;;;;;;-4.23;100.00;102790.94;5075228;28;20044;-73
2023/02/27 06:34:59;;;;;;;23.15;8.80;;;;;;;-4.23;100.00;102778.00;5073681;28;20044;-73
2023/02/27 06:37:24;;;;;;;23.10;9.60;;;;;;;-4.26;100.00;102790.63;5075047;28;20067;-73
2023/02/27 06:39:49;;;;;;;24.70;10.80;;;;;;;-4.26;100.00;102794.91;5074685;28;20041;-73
2023/02/27 06:42:15;;;;;;;24.23;11.35;;;;;;;-4.21;100.00;102804.91;5075020;28;20379;-73
2023/02/27 06:44:41;;;;;;;21.50;8.63;;;;;;;-4.19;100.00;102792.16;5074934;28;20494;-73
2023/02/27 06:47:06;;;;;;;21.30;8.52;;;;;;;-4.20;100.00;102811.88;5074686;28;20319;-73
2023/02/27 06:49:31;;;;;;;20.83;7.60;;;;;;;-4.17;100.00;102812.97;5074938;28;20031;-74
2023/02/27 06:51:57;;;;;;;21.20;7.70;;;;;;;-4.18;100.00;102813.72;5074927;28;20028;-73
2023/02/27 06:54:22;;;;;;;20.42;7.28;;;;;;;-4.17;100.00;102820.69;5074554;28;20032;-73
2023/02/27 06:56:49;;;;;;;20.70;7.00;;;;;;;-4.15;100.00;102819.16;5074540;28;20433;-74
2023/02/27 06:59:14;;;;;;;21.08;6.70;;;;;;;-4.12;100.00;102822.97;5074632;28;20120;-73
2023/02/27 07:01:39;;;;;;;22.02;6.80;;;;;;;-4.01;100.00;102828.25;5074401;28;20446;-73
2023/02/27 07:04:05;;;;;;;21.83;7.13;;;;;;;-3.99;100.00;102835.38;5074340;28;20522;-73
2023/02/27 07:06:30;;;;;;;20.98;7.07;;;;;;;-3.92;100.00;102832.59;5074629;28;20467;-75
2023/02/27 07:08:55;;;;;;;19.92;6.60;;;;;;;-3.84;100.00;102841.09;5074614;28;20479;-73
2023/02/27 07:11:21;;;;;;;20.83;6.78;;;;;;;-3.74;100.00;102848.00;5074519;28;20484;-74
2023/02/27 07:13:46;;;;;;;20.48;6.50;;;;;;;-3.65;100.00;102850.59;5074432;28;20028;-73
2023/02/27 07:16:11;;;;;;;20.55;6.90;;;;;;;-3.60;100.00;102855.38;5074152;28;20033;-73
2023/02/27 07:18:37;;;;;;;21.05;7.13;;;;;;;-3.50;100.00;102865.81;5074389;28;20044;-73
2023/02/27 07:21:02;;;;;;;22.02;7.60;;;;;;;-3.43;100.00;102861.25;5072771;28;20057;-73
2023/02/27 07:23:28;;;;;;;20.33;7.22;;;;;;;-3.35;100.00;102863.78;5074105;28;20032;-73
2023/02/27 07:25:53;;;;;;;21.52;7.10;;;;;;;-3.27;100.00;102868.75;5072947;28;20039;-73
2023/02/27 07:28:18;;;;;;;20.52;7.15;;;;;;;-3.18;100.00;102867.91;5073854;28;20033;-73
2023/02/27 07:30:45;;;;;;;21.42;7.40;;;;;;;-3.07;100.00;102873.16;5073700;28;20055;-73
2023/02/27 07:33:10;;;;;;;20.48;7.50;;;;;;;-2.91;100.00;102868.66;5069377;28;20043;-72
2023/02/27 07:35:35;;;;;;;21.95;7.05;;;;;;;-2.74;100.00;102866.66;5068419;28;20032;-72
2023/02/27 07:38:01;;;;;;;20.00;6.30;;;;;;;-2.61;100.00;102860.91;5072822;28;20123;-73
2023/02/27 07:40:26;;;;;;;19.83;6.50;;;;;;;-2.48;100.00;102862.13;5069674;28;20120;-73
2023/02/27 07:42:52;;;;;;;21.08;6.60;;;;;;;-2.43;100.00;102857.41;5073826;28;20020;-73
2023/02/27 07:45:17;;;;;;;20.00;6.53;;;;;;;-2.35;100.00;102855.47;5069499;28;20030;-73
2023/02/27 07:47:43;;;;;;;20.48;6.15;;;;;;;-2.21;100.00;102862.78;5072910;28;20028;-73
2023/02/27 07:50:12;;;;;;;20.52;6.72;;;;;;;-2.08;100.00;102869.97;5070345;28;20115;-73
2023/02/27 07:52:39;;;;;;;19.35;6.13;;;;;;;-1.87;100.00;102860.56;5064832;28;20017;-71
2023/02/27 07:55:05;;;;;;;20.70;6.40;;;;;;;-1.72;100.00;102866.16;5067873;28;20029;-71
2023/02/27 07:57:31;;;;;;;18.98;6.28;;;;;;;-1.53;100.00;102860.88;5069606;28;20090;-71
2023/02/27 07:59:57;;;;;;;18.20;5.82;;;;;;;-1.34;100.00;102859.84;5071687;28;20040;-71
2023/02/27 08:02:22;;;;;;;20.50;6.20;;;;;;;-1.21;100.00;102856.59;5069786;28;20029;-72
2023/02/27 08:04:47;;;;;;;19.20;5.97;;;;;;;-1.03;100.00;102852.97;5062361;28;20115;-72
2023/02/27 08:07:13;;;;;;;20.92;6.40;;;;;;;-0.89;100.00;102860.22;5074565;28;20077;-75
2023/02/27 08:09:38;;;;;;;17.77;5.75;;;;;;;-0.64;100.00;102863.91;5076745;28;20078;-74
2023/02/27 08:12:04;;;;;;;18.42;5.65;;;;;;;-0.47;100.00;102860.09;5075245;28;20447;-71
2023/02/27 08:14:29;;;;;;;19.05;6.07;;;;;;;-0.27;100.00;102864.31;5073643;28;20065;-72
2023/02/27 08:16:54;;;;;;;19.50;6.00;;;;;;;-0.04;100.00;102869.66;5065791;28;20382;-72
2023/02/27 08:19:20;;;;;;;18.92;5.72;;;;;;;0.14;100.00;102864.09;5078272;28;20498;-71
2023/02/27 08:21:45;;;;;;;19.48;5.88;;;;;;;0.30;100.00;102866.22;5067937;28;20383;-71
2023/02/27 08:24:10;;;;;;;18.92;5.63;;;;;;;0.47;100.00;102867.56;5066902;28;20098;-71
2023/02/27 08:26:36;;;;;;;19.63;5.85;;;;;;;0.58;100.00;102873.56;5076929;28;20032;-74
2023/02/27 08:29:01;;;;;;;18.60;5.53;;;;;;;0.73;100.00;102876.44;5067618;28;20055;-73
2023/02/27 08:31:27;;;;;;;19.52;5.82;;;;;;;0.97;100.00;102877.41;5068914;28;20122;-73
2023/02/27 08:33:52;;;;;;;19.55;5.60;;;;;;;1.13;100.00;102875.16;5070714;28;20170;-73
2023/02/27 08:36:17;;;;;;;18.25;5.40;;;;;;;1.16;100.00;102872.78;5075032;28;20624;-73
2023/02/27 08:38:43;;;;;;;19.05;5.25;;;;;;;1.12;100.00;102882.88;5066436;28;20028;-73
2023/02/27 08:41:08;;;;;;;18.20;5.00;;;;;;;1.12;100.00;102878.59;5061987;28;20372;-73
2023/02/27 08:43:33;;;;;;;19.25;5.30;;;;;;;1.19;100.00;102887.75;5067097;28;20381;-74
2023/02/27 08:45:59;;;;;;;20.60;5.03;;;;;;;1.30;100.00;102891.19;5069815;28;20456;-73
2023/02/27 08:48:24;;;;;;;18.60;5.45;;;;;;;1.55;100.00;102891.31;5063960;28;20398;-73
2023/02/27 08:50:50;;;;;;;18.40;5.38;;;;;;;1.66;100.00;102894.69;5063471;28;20098;-73
2023/02/27 08:53:15;;;;;;;17.48;4.97;;;;;;;1.84;100.00;102888.22;5068046;28;20024;-73
2023/02/27 08:55:41;;;;;;;18.27;5.00;;;;;;;2.02;100.00;102893.84;5058868;28;20032;-73
2023/02/27 08:58:08;;;;;;;17.20;5.10;;;;;;;2.09;100.00;102885.66;5072460;28;20360;-73
2023/02/27 09:00:33;;;;;;;18.35;4.90;;;;;;;2.09;100.00;102883.03;5072368;28;20036;-73
2023/02/27 09:03:00;;;;;;;17.35;4.90;;;;;;;2.08;100.00;102891.69;5071375;28;20107;-73
2023/02/27 09:05:25;;;;;;;16.40;4.78;;;;;;;2.27;100.00;102892.97;5072453;28;20042;-73
2023/02/27 09:07:51;;;;;;;16.65;4.50;;;;;;;2.40;100.00;102897.38;5072426;28;20475;-73
2023/02/27 09:10:16;;;;;;;18.55;4.63;;;;;;;2.68;100.00;102892.38;5072506;28;20391;-73
2023/02/27 09:12:42;;;;;;;17.88;4.40;;;;;;;3.01;100.00;102899.81;5071105;28;20352;-73
2023/02/27 09:15:08;;;;;;;17.73;4.65;;;;;;;3.26;100.00;102905.91;5072737;28;20032;-73
2023/02/27 09:17:33;;;;;;;16.73;4.30;;;;;;;3.42;100.00;102902.59;5072567;28;20024;-73
2023/02/27 09:19:59;;;;;;;17.83;4.28;;;;;;;3.46;100.00;102907.19;5072235;28;20430;-74
2023/02/27 09:22:24;;;;;;;16.05;4.18;;;;;;;3.67;100.00;102909.44;5072548;28;20029;-74
2023/02/27 09:24:49;;;;;;;17.00;4.30;;;;;;;3.72;100.00;102900.19;5072298;28;20021;-73
2023/02/27 09:27:15;;;;;;;14.43;3.95;;;;;;;3.82;100.00;102902.56;5072238;28;20395;-74
2023/02/27 09:29:40;;;;;;;17.58;4.22;;;;;;;4.29;100.00;102903.78;5070870;28;20513;-75
2023/02/27 09:32:06;;;;;;;15.10;4.43;;;;;;;4.76;100.00;102909.28;5071746;28;20098;-75
2023/02/27 09:34:32;;;;;;;16.50;4.00;;;;;;;4.96;100.00;102908.75;5072056;28;20036;-74
2023/02/27 09:36:58;;;;;;;15.48;3.72;;;;;;;5.03;100.00;102913.56;5072275;28;20112;-75
2023/02/27 09:39:24;;;;;;;16.25;3.80;;;;;;;5.09;100.00;102910.41;5071985;28;20029;-74
2023/02/27 09:41:55;;;;;;;17.17;3.83;;;;;;;5.14;100.00;102905.44;5072148;28;20028;-75
2023/02/27 09:44:38;;;;;;;15.70;3.47;;;;;;;5.36;100.00;102910.25;5068647;28;20044;-75
2023/02/27 09:47:05;;;;;;;13.82;3.47;;;;;;;5.40;100.00;102904.34;5060782;28;20075;-75
2023/02/27 09:49:40;;;;;;;14.88;3.83;;;;;;;5.40;100.00;102904.34;5070616;28;20021;-76
2023/02/27 09:52:06;;;;;;;12.52;3.30;;;;;;;5.48;100.00;102900.44;5062069;28;20102;-73
2023/02/27 09:54:33;;;;;;;11.60;3.10;;;;;;;5.71;100.00;102903.50;5068964;28;20120;-75
2023/02/27 09:57:02;;;;;;;13.45;3.33;;;;;;;5.97;100.00;102897.16;5070938;28;20025;-75
2023/02/27 09:59:38;;;;;;;14.18;3.53;;;;;;;6.01;100.00;102903.44;5064189;28;20083;-74
2023/02/27 10:02:43;;;;;;;15.70;3.67;;;;;;;6.52;100.00;102898.34;5076495;28;20028;-73
2023/02/27 10:05:27;;;;;;;12.70;3.30;;;;;;;7.20;100.00;102904.53;5069409;28;20082;-73
2023/02/27 10:08:00;;;;;;;12.15;3.33;;;;;;;8.06;87.50;102908.72;5072390;28;20024;-73
2023/02/27 10:10:47;;;;;;;14.93;3.50;;;;;;;8.65;62.50;102909.75;5068443;28;20123;-73
2023/02/27 10:13:12;;;;;;;14.23;3.28;;;;;;;8.79;53.63;102912.09;5069731;28;20056;-72
2023/02/27 10:15:45;;;;;;;11.38;2.88;;;;;;;8.75;53.55;102912.78;5076889;28;20059;-73
2023/02/27 10:18:16;;;;;;;11.68;2.92;;;;;;;9.11;52.43;102915.25;5069792;28;20044;-75
2023/02/27 10:21:18;;;;;;;11.50;2.90;;;;;;;9.64;51.62;102898.13;5066166;28;20446;-73
2023/02/27 10:23:55;;;;;;;10.15;2.88;;;;;;;10.08;48.60;102909.56;5073640;28;20111;-74
2023/02/27 10:26:30;;;;;;;13.10;2.80;;;;;;;10.69;47.80;102903.91;5076552;28;20039;-72
2023/02/27 10:29:12;;;;;;;12.80;3.15;;;;;;;11.04;45.89;102907.84;5064032;28;20044;-72
2023/02/27 10:31:39;;;;;;;11.18;2.75;;;;;;;11.78;43.63;102907.69;5070793;28;20384;-73
2023/02/27 10:34:04;;;;;;;11.43;2.80;;;;;;;12.01;41.30;102900.50;5068177;28;20044;-73
2023/02/27 10:36:30;;;;;;;8.50;2.60;;;;;;;11.90;41.64;102895.66;5066309;28;20479;-72
2023/02/27 10:39:10;;;;;;;8.48;2.60;;;;;;;11.81;41.33;102901.56;5069374;28;20024;-73
2023/02/27 10:41:37;;;;;;;10.77;2.53;;;;;;;11.63;40.86;102891.28;5071240;28;20383;-73
2023/02/27 10:44:03;;;;;;;9.52;2.40;;;;;;;11.95;40.20;102891.44;5078063;28;20392;-73
2023/02/27 10:46:31;;;;;;;9.45;2.40;;;;;;;12.49;38.83;102887.75;5069648;28;20029;-72
2023/02/27 10:49:04;;;;;;;9.52;2.40;;;;;;;12.62;39.29;102886.34;5074341;28;20027;-73
2023/02/27 10:51:35;;;;;;;8.77;2.40;;;;;;;12.30;38.87;102886.31;5077192;28;20028;-73
2023/02/27 10:54:22;;;;;;;11.50;2.40;;;;;;;12.37;38.77;102880.34;5073091;28;20436;-74
2023/02/27 10:56:53;;;;;;;7.75;2.30;;;;;;;13.02;37.33;102866.22;5070741;28;20028;-72
2023/02/27 10:59:26;;;;;;;13.60;2.60;;;;;;;13.42;37.48;102876.09;5071501;28;20034;-72
2023/02/27 11:01:54;;;;;;;9.15;2.10;;;;;;;14.06;35.11;102869.63;5070249;28;20483;-71
2023/02/27 11:04:45;;;;;;;11.15;2.50;;;;;;;14.62;36.56;102866.34;5072451;28;20024;-74
2023/02/27 11:07:14;;;;;;;10.73;2.40;;;;;;;14.96;34.31;102859.91;5072978;28;20028;-73
2023/02/27 11:09:40;;;;;;;7.68;2.33;;;;;;;14.60;33.70;102847.66;5071646;28;20033;-73
2023/02/27 11:12:37;;;;;;;8.30;2.42;;;;;;;14.10;35.35;102851.09;5074113;28;20107;-73
2023/02/27 11:15:22;;;;;;;10.07;2.55;;;;;;;14.12;36.18;102845.81;5066128;28;20041;-73
2023/02/27 11:17:47;;;;;;;10.10;2.33;;;;;;;14.50;34.12;102843.03;5074418;28;20076;-73
2023/02/27 11:20:28;;;;;;;8.02;2.33;;;;;;;14.97;34.98;102843.06;5074081;28;20429;-74
2023/02/27 11:23:13;;;;;;;8.50;2.50;;;;;;;15.06;33.38;102841.47;5070676;28;20170;-73
2023/02/27 11:25:39;;;;;;;10.02;2.70;;;;;;;14.89;32.87;102842.03;5074058;28;20031;-74
2023/02/27 11:28:17;;;;;;;11.70;2.45;;;;;;;14.96;33.31;102843.94;5073887;28;20028;-74
2023/02/27 11:30:43;;;;;;;11.32;2.90;;;;;;;15.45;32.98;102829.63;5074119;28;20103;-73